Historique des stations

Station météo de Aubigny-sur-Nère

Altitude de la station : 197 m







Données météorologiques pour le 02/12/2021
Date
Heure
Températures Humidité Point de rosée Vitesse
du vent
Direction Rafales Windchill Pression Pluviométrie
Cumul
Date
Heure
Températures Humidité Point de rosée Vitesse
du vent
Direction Rafales Windchill Pression Pluviométrie
Cumul
02/12/2021 17:463.3 °C47 %-7.2 °C-NO5 km/h3.3 1007 hPa0.3 mm
02/12/2021 17:453.3 °C47 %-7.2 °C-NO32 km/h3.3 1007 hPa0.25 mm
02/12/2021 17:313.5 °C45 %-7.2 °C-NO8 km/h3.3 1007 hPa0.3 mm
02/12/2021 17:303.5 °C45 %-7.2 °C-NO32 km/h3.3 1007 hPa0.25 mm
02/12/2021 17:163.7 °C43 %-7.8 °C3 km/hNO10 km/h2.8 1007 hPa0.3 mm
02/12/2021 17:153.8 °C43 %-7.8 °C6 km/hNO32 km/h2.2 1007 hPa0.25 mm
02/12/2021 17:014.1 °C43 %-7.8 °C14 km/hNO16 km/h0.6 1007 hPa0.3 mm
02/12/2021 17:004.1 °C43 %-7.8 °C6 km/hNO32 km/h2.2 1007 hPa0.25 mm
02/12/2021 16:464.3 °C42 %-7.8 °C8 km/hNNO18 km/h2.2 1006 hPa0.3 mm
02/12/2021 16:454.4 °C42 %-7.8 °C6 km/hNO32 km/h2.8 1006 hPa0.25 mm
02/12/2021 16:314.7 °C41 %-7.8 °C10 km/hNO23 km/h2.8 1006 hPa0.3 mm
02/12/2021 16:304.8 °C41 %-7.8 °C14 km/hN32 km/h1.7 1006 hPa0.25 mm
02/12/2021 16:155.0 °C44 %-6.7 °C8 km/hNNO18 km/h2.8 1006 hPa0.3 mm
02/12/2021 16:145.0 °C44 %-6.7 °C5 km/hNO32 km/h4.4 1006 hPa0.25 mm
02/12/2021 16:005.2 °C46 %-5.6 °C11 km/hONO14 km/h2.2 1006 hPa0.3 mm
02/12/2021 15:595.2 °C46 %-5.6 °C6 km/hONO32 km/h3.9 1006 hPa0.25 mm
02/12/2021 15:455.0 °C46 %-6.1 °C5 km/hO16 km/h4.4 1006 hPa0.3 mm
02/12/2021 15:445.0 °C47 %-5.6 °C8 km/hOSO32 km/h2.8 1006 hPa0.25 mm
02/12/2021 15:304.6 °C48 %-5.6 °C2 km/hNNO14 km/h3.9 1006 hPa0.3 mm
02/12/2021 15:294.6 °C48 %-5.6 °C6 km/hNNO32 km/h2.8 1006 hPa0.25 mm
02/12/2021 15:153.9 °C49 %-6.1 °C8 km/hNNO14 km/h1.7 1006 hPa0.3 mm
02/12/2021 15:133.9 °C49 %-6.1 °C3 km/hNNO32 km/h2.8 1006 hPa0.25 mm
02/12/2021 15:004.4 °C46 %-6.7 °C5 km/hNO26 km/h3.3 1006 hPa0.3 mm
02/12/2021 14:594.5 °C45 %-6.7 °C24 km/hNNO32 km/h0.0 1005 hPa0.25 mm
02/12/2021 14:454.6 °C44 %-6.7 °C19 km/hNO29 km/h0.6 1005 hPa0.3 mm
02/12/2021 14:444.7 °C44 %-6.7 °C18 km/hNO32 km/h1.1 1005 hPa0.25 mm
02/12/2021 14:304.6 °C46 %-6.1 °C2 km/hNO21 km/h3.9 1005 hPa0.3 mm
02/12/2021 14:294.6 °C46 %-6.1 °C5 km/hNO32 km/h3.3 1005 hPa0.25 mm
02/12/2021 14:154.6 °C47 %-6.1 °C14 km/hNO23 km/h1.1 1005 hPa0.3 mm
02/12/2021 14:144.6 °C47 %-6.1 °C5 km/hNO32 km/h3.3 1005 hPa0.25 mm
02/12/2021 14:004.6 °C49 %-5.6 °C5 km/hNNO23 km/h3.3 1005 hPa0.3 mm
02/12/2021 13:594.6 °C49 %-5.6 °C13 km/hNO32 km/h1.7 1005 hPa0.25 mm
02/12/2021 13:454.7 °C49 %-5.6 °C3 km/hNO24 km/h3.3 1005 hPa0.3 mm
02/12/2021 13:444.6 °C49 %-5.6 °C8 km/hNO32 km/h2.2 1005 hPa0.25 mm
02/12/2021 13:304.7 °C49 %-5.0 °C10 km/hNO21 km/h2.8 1005 hPa0.3 mm
02/12/2021 13:294.7 °C49 %-5.0 °C2 km/hONO32 km/h5.0 1005 hPa0.25 mm
02/12/2021 13:154.5 °C50 %-5.0 °C6 km/hNO24 km/h2.8 1006 hPa0.3 mm
02/12/2021 13:134.5 °C50 %-5.0 °C6 km/hNO32 km/h2.8 1006 hPa0.25 mm
02/12/2021 13:004.6 °C50 %-5.0 °C11 km/hONO23 km/h1.7 1006 hPa0.3 mm
02/12/2021 12:594.6 °C50 %-5.0 °C10 km/hNO32 km/h2.2 1006 hPa0.25 mm
02/12/2021 12:454.5 °C51 %-5.0 °C10 km/hNO18 km/h2.2 1006 hPa0.3 mm
02/12/2021 12:444.4 °C51 %-5.0 °C11 km/hONO32 km/h1.7 1006 hPa0.25 mm
02/12/2021 12:304.3 °C50 %-5.6 °C5 km/hONO19 km/h3.3 1006 hPa0.3 mm
02/12/2021 12:294.3 °C50 %-5.6 °C18 km/hNO32 km/h1.1 1006 hPa0.25 mm
02/12/2021 12:154.3 °C50 %-5.6 °C10 km/hNNO24 km/h2.2 1006 hPa0.3 mm
02/12/2021 12:144.3 °C50 %-5.6 °C6 km/hONO32 km/h2.8 1005 hPa0.25 mm
02/12/2021 12:004.2 °C50 %-5.6 °C10 km/hNO21 km/h2.2 1006 hPa0.3 mm
02/12/2021 11:594.2 °C50 %-5.6 °C6 km/hNO32 km/h2.8 1006 hPa0.25 mm
02/12/2021 11:454.3 °C50 %-5.6 °C19 km/hN24 km/h0.6 1006 hPa0.3 mm
02/12/2021 11:444.3 °C50 %-5.6 °C6 km/hNNO32 km/h2.8 1006 hPa0.25 mm
02/12/2021 11:314.2 °C51 %-5.0 °C11 km/hNO21 km/h1.7 1006 hPa0.3 mm
02/12/2021 11:294.2 °C51 %-5.0 °C5 km/hNNO32 km/h3.3 1006 hPa0.25 mm
02/12/2021 11:154.0 °C53 %-5.0 °C16 km/hN19 km/h0.6 1006 hPa-
02/12/2021 11:143.9 °C53 %-5.0 °C3 km/hNNO32 km/h2.8 1006 hPa-
02/12/2021 11:003.5 °C54 %-5.0 °C16 km/hNO26 km/h-0.6 1006 hPa-
02/12/2021 10:593.5 °C54 %-5.0 °C13 km/hNNO32 km/h0.6 1006 hPa-
02/12/2021 10:453.3 °C55 %-5.0 °C14 km/hNO24 km/h0.0 1005 hPa-
02/12/2021 10:443.3 °C55 %-5.0 °C8 km/hNO32 km/h1.1 1005 hPa-
02/12/2021 10:313.3 °C55 %-5.0 °C10 km/hNNO18 km/h0.6 1005 hPa-
02/12/2021 10:293.3 °C55 %-5.0 °C6 km/hO32 km/h1.7 1005 hPa-
02/12/2021 10:153.2 °C55 %-5.0 °C13 km/hNO23 km/h0.6 1005 hPa-
02/12/2021 10:143.2 °C55 %-5.0 °C10 km/hNNO32 km/h0.6 1004 hPa-
02/12/2021 10:013.1 °C56 %-5.0 °C8 km/hNO19 km/h1.1 1004 hPa-
02/12/2021 09:593.1 °C56 %-5.0 °C8 km/hNNO32 km/h1.1 1004 hPa-
02/12/2021 09:463.2 °C56 %-5.0 °C16 km/hN21 km/h-0.6 1004 hPa-
02/12/2021 09:443.1 °C56 %-5.0 °C6 km/hNNO32 km/h1.7 1004 hPa-
02/12/2021 09:313.1 °C56 %-5.0 °C14 km/hNO16 km/h0.0 1004 hPa-
02/12/2021 09:293.1 °C56 %-5.0 °C2 km/hNO32 km/h2.8 1004 hPa-
02/12/2021 09:163.1 °C56 %-5.0 °C11 km/hNO14 km/h0.6 1004 hPa-
02/12/2021 09:143.2 °C56 %-5.0 °C2 km/hNO32 km/h2.8 1004 hPa-
02/12/2021 09:013.3 °C55 %-5.0 °C6 km/hNO16 km/h1.7 1004 hPa-
02/12/2021 08:593.3 °C55 %-5.0 °C8 km/hNO32 km/h1.1 1003 hPa-
02/12/2021 08:463.4 °C56 %-4.4 °C13 km/hNNO23 km/h0.6 1003 hPa-
02/12/2021 08:443.5 °C56 %-4.4 °C8 km/hNNE32 km/h1.1 1003 hPa-
02/12/2021 08:313.8 °C56 %-4.4 °C10 km/hNO19 km/h1.1 1003 hPa-
02/12/2021 08:293.8 °C56 %-4.4 °C10 km/hNO32 km/h1.1 1003 hPa-
02/12/2021 08:163.8 °C57 %-3.9 °C13 km/hN26 km/h1.1 1003 hPa-
02/12/2021 08:153.8 °C57 %-3.9 °C14 km/hNO32 km/h0.6 1003 hPa-
02/12/2021 08:014.1 °C57 %-3.9 °C6 km/hNO23 km/h2.2 1002 hPa-
02/12/2021 08:004.1 °C57 %-3.9 °C16 km/hNNO32 km/h0.6 1002 hPa-
02/12/2021 07:464.1 °C57 %-3.9 °C8 km/hNO23 km/h1.7 1002 hPa-
02/12/2021 07:454.1 °C57 %-3.9 °C6 km/hNNO32 km/h2.2 1002 hPa-
02/12/2021 07:314.0 °C57 %-3.9 °C6 km/hNO16 km/h2.2 1002 hPa-
02/12/2021 07:304.0 °C57 %-3.9 °C16 km/hNNO32 km/h0.6 1002 hPa-
02/12/2021 07:163.9 °C57 %-3.9 °C10 km/hNNE26 km/h1.1 1002 hPa-
02/12/2021 07:153.9 °C57 %-3.9 °C10 km/hNNO32 km/h1.1 1002 hPa-
02/12/2021 07:004.1 °C57 %-3.9 °C8 km/hN32 km/h1.7 1001 hPa-
02/12/2021 06:594.2 °C57 %-3.9 °C16 km/hNO32 km/h1.1 1002 hPa-
02/12/2021 06:454.2 °C57 %-3.9 °C6 km/hNNO19 km/h2.8 1001 hPa-
02/12/2021 06:444.2 °C57 %-3.9 °C10 km/hNO19 km/h2.2 1001 hPa-
02/12/2021 06:304.2 °C57 %-3.9 °C13 km/hONO14 km/h1.7 1001 hPa-
02/12/2021 06:294.2 °C57 %-3.9 °C10 km/hNO19 km/h2.2 1001 hPa-
02/12/2021 06:154.2 °C57 %-3.9 °C8 km/hNO14 km/h2.2 1001 hPa-
02/12/2021 06:144.2 °C57 %-3.9 °C10 km/hNO19 km/h2.2 1001 hPa-
02/12/2021 06:004.2 °C57 %-3.9 °C3 km/hNO14 km/h3.3 1001 hPa-
02/12/2021 05:594.2 °C57 %-3.9 °C2 km/hNO19 km/h3.9 1001 hPa-
02/12/2021 05:454.2 °C57 %-3.9 °C2 km/hNO19 km/h3.9 1001 hPa-
02/12/2021 05:444.2 °C57 %-3.9 °C6 km/hNO19 km/h2.8 1001 hPa-
02/12/2021 05:304.2 °C57 %-3.9 °C2 km/hO13 km/h3.9 1001 hPa-
02/12/2021 05:294.2 °C57 %-3.9 °C-OSO16 km/h4.4 1001 hPa-
02/12/2021 05:154.2 °C57 %-3.9 °C10 km/hO11 km/h2.2 1001 hPa-
02/12/2021 05:144.2 °C57 %-3.9 °C5 km/hO16 km/h3.3 1001 hPa-
02/12/2021 05:004.2 °C57 %-3.9 °C5 km/hO13 km/h3.3 1001 hPa-
02/12/2021 04:594.2 °C57 %-3.9 °C11 km/hO16 km/h1.7 1001 hPa-
02/12/2021 04:454.3 °C57 %-3.9 °C5 km/hOSO11 km/h3.3 1001 hPa-
02/12/2021 04:444.3 °C57 %-3.9 °C5 km/hO16 km/h3.3 1001 hPa-
02/12/2021 04:304.3 °C56 %-3.9 °C2 km/hO10 km/h3.9 1001 hPa-
02/12/2021 04:294.3 °C56 %-3.9 °C3 km/hO16 km/h3.3 1001 hPa-
02/12/2021 04:154.3 °C57 %-3.3 °C3 km/hO14 km/h3.3 1001 hPa-
02/12/2021 04:144.4 °C57 %-3.3 °C3 km/hOSO16 km/h3.3 1001 hPa-
02/12/2021 04:004.4 °C56 %-3.9 °C5 km/hOSO13 km/h3.3 1001 hPa-
02/12/2021 03:594.4 °C56 %-3.9 °C6 km/hO16 km/h2.8 1001 hPa-
02/12/2021 03:454.6 °C56 %-3.9 °C5 km/hONO14 km/h3.3 1001 hPa-
02/12/2021 03:444.6 °C56 %-3.9 °C11 km/hONO16 km/h1.7 1001 hPa-
02/12/2021 03:304.7 °C56 %-3.3 °C10 km/hO13 km/h2.2 1001 hPa-
02/12/2021 03:294.7 °C56 %-3.3 °C5 km/hOSO16 km/h4.4 1001 hPa-
02/12/2021 03:154.8 °C56 %-3.3 °C3 km/hO16 km/h4.4 1000 hPa-
02/12/2021 03:144.8 °C56 %-3.3 °C5 km/hO16 km/h4.4 1000 hPa-
02/12/2021 03:004.9 °C56 %-3.3 °C5 km/hO14 km/h4.4 1000 hPa-
02/12/2021 02:594.9 °C56 %-3.3 °C5 km/hO16 km/h4.4 1000 hPa-
02/12/2021 02:455.0 °C56 %-3.3 °C5 km/hO11 km/h4.4 1000 hPa-
02/12/2021 02:445.0 °C56 %-3.3 °C3 km/hO16 km/h4.4 1000 hPa-
02/12/2021 02:305.1 °C56 %-3.3 °C3 km/hO11 km/h4.4 1000 hPa-
02/12/2021 02:295.1 °C56 %-3.3 °C3 km/hOSO16 km/h4.4 1000 hPa-
02/12/2021 02:155.2 °C56 %-2.8 °C5 km/hOSO14 km/h4.4 1000 hPa-
02/12/2021 02:145.2 °C56 %-2.8 °C6 km/hOSO16 km/h3.9 1000 hPa-
02/12/2021 02:005.2 °C55 %-3.3 °C5 km/hO11 km/h4.4 1000 hPa-
02/12/2021 01:595.2 °C55 %-3.3 °C6 km/hO16 km/h3.9 1000 hPa-
02/12/2021 01:475.3 °C55 %-3.3 °C6 km/hOSO13 km/h4.4 1000 hPa-
02/12/2021 01:445.3 °C55 %-3.3 °C6 km/hOSO16 km/h4.4 1000 hPa-
02/12/2021 01:325.3 °C55 %-3.3 °C5 km/hOSO11 km/h5.0 1000 hPa-
02/12/2021 01:295.3 °C55 %-3.3 °C5 km/hOSO16 km/h5.0 1000 hPa-
02/12/2021 01:185.3 °C55 %-3.3 °C5 km/hOSO13 km/h5.0 1000 hPa-
02/12/2021 01:155.3 °C55 %-3.3 °C5 km/hOSO16 km/h5.0 1000 hPa-
02/12/2021 01:045.3 °C55 %-3.3 °C5 km/hOSO14 km/h5.0 1000 hPa-
02/12/2021 01:015.3 °C55 %-3.3 °C6 km/hOSO16 km/h4.4 1000 hPa-
02/12/2021 00:475.2 °C55 %-3.3 °C6 km/hOSO13 km/h3.9 1000 hPa-
02/12/2021 00:445.2 °C55 %-3.3 °C6 km/hO16 km/h3.9 1000 hPa-
02/12/2021 00:315.2 °C56 %-3.3 °C5 km/hOSO16 km/h4.4 1000 hPa-
02/12/2021 00:295.2 °C56 %-3.3 °C6 km/hOSO16 km/h3.9 1000 hPa-
02/12/2021 00:165.0 °C55 %-3.3 °C5 km/hOSO14 km/h4.4 1000 hPa-
02/12/2021 00:145.0 °C55 %-3.3 °C6 km/hOSO13 km/h3.9 1000 hPa-
02/12/2021 00:004.9 °C55 %-3.3 °C6 km/hSO13 km/h3.9 1000 hPa-


Minima :

Température : 3.1 °C
Humidité : 41 %
Point de rosée : -7.8 °C
Vent moyen : 2 km/h
Windchill : -0.6
Pression atm. : 1000 hPa
Maxima :

Température : 5.3 °C
Humidité : 57 %
Point de rosée : -2.8 °C
Vent moyen : 24 km/h
Windchill : 5.0
Pression atm. : 1007 hPa
Rafales max : 32 km/h
Cumul de pluie sur 24H : 0.3 mm

Aubigny-sur-Nère est une commune du département Cher (18).
La station météorologique du réseau de l'association la plus proche de Aubigny-sur-Nère est celle de Salbris



Icône Facebook Association Météo Centre Icône Twitter Association Météo Centre Icône Chaîne Youtube Association Météo Centre Icône contact Association Météo Centre Icône Insta Association Météo Centre